SWR975 EDDB-LSZH
Flight info
| Callsign | SWR975 |
|---|---|
| Flight time | 0h 56m |
| Altitude | 30000 |
| Route | KISUC1N KISUC Z20 MAG Z92 ABGUS DCT LUXUX/N0444F310 DCT SWALM/N0442F300 DCT OMOGI/N0444F310 T721 RILAX |
| Aircraft | A321/M-SDE3FGHIRWY/LB1 |
Departure
| Time | 2026-05-01 10:58 |
|---|---|
| Airport | Berlin Brandenburg Airport (EDDB) |
Arrival
| Time | 2026-05-01 11:54 |
|---|---|
| Airport | Zürich Airport (LSZH) |
| Time | Latitude | Longitude | Altitude | Speed | Heading |
|---|---|---|---|---|---|
| 2026-05-01 10:36 | 52.36210 | 13.50698 | 155 ft | 0 kts | 69° |
| 2026-05-01 10:48 | 52.36210 | 13.50697 | 155 ft | 0 kts | 69° |
| 2026-05-01 10:49 | 52.36209 | 13.50694 | 155 ft | 2 kts | 69° |
| 2026-05-01 10:49 | 52.36200 | 13.50656 | 155 ft | 4 kts | 70° |
| 2026-05-01 10:50 | 52.36193 | 13.50613 | 155 ft | 4 kts | 86° |
| 2026-05-01 10:50 | 52.36195 | 13.50572 | 155 ft | 4 kts | 118° |
| 2026-05-01 10:50 | 52.36209 | 13.50548 | 155 ft | 1 kts | 159° |
| 2026-05-01 10:50 | 52.36213 | 13.50546 | 155 ft | 2 kts | 159° |
| 2026-05-01 10:52 | 52.36192 | 13.50558 | 155 ft | 8 kts | 159° |
| 2026-05-01 10:53 | 52.36120 | 13.50604 | 155 ft | 11 kts | 159° |
| 2026-05-01 10:53 | 52.36051 | 13.50649 | 154 ft | 10 kts | 158° |
| 2026-05-01 10:53 | 52.35987 | 13.50689 | 154 ft | 10 kts | 159° |
| 2026-05-01 10:53 | 52.35924 | 13.50729 | 154 ft | 10 kts | 158° |
| 2026-05-01 10:54 | 52.35864 | 13.50766 | 154 ft | 9 kts | 159° |
| 2026-05-01 10:54 | 52.35790 | 13.50813 | 154 ft | 12 kts | 159° |
| 2026-05-01 10:54 | 52.35745 | 13.50902 | 154 ft | 10 kts | 85° |
| 2026-05-01 10:54 | 52.35771 | 13.51024 | 154 ft | 14 kts | 68° |
| 2026-05-01 10:55 | 52.35814 | 13.51204 | 155 ft | 20 kts | 68° |
| 2026-05-01 10:55 | 52.35873 | 13.51446 | 155 ft | 26 kts | 69° |
| 2026-05-01 10:55 | 52.35944 | 13.51747 | 155 ft | 29 kts | 68° |
| 2026-05-01 10:55 | 52.36007 | 13.52016 | 155 ft | 18 kts | 70° |
| 2026-05-01 10:56 | 52.36017 | 13.52162 | 155 ft | 12 kts | 125° |
| 2026-05-01 10:56 | 52.35948 | 13.52214 | 155 ft | 11 kts | 159° |
| 2026-05-01 10:56 | 52.35875 | 13.52256 | 155 ft | 14 kts | 162° |
| 2026-05-01 10:56 | 52.35818 | 13.52215 | 155 ft | 11 kts | 250° |
| 2026-05-01 10:57 | 52.35750 | 13.51927 | 155 ft | 57 kts | 249° |
| 2026-05-01 10:57 | 52.35522 | 13.50973 | 158 ft | 120 kts | 249° |
| 2026-05-01 10:57 | 52.35159 | 13.49451 | 159 ft | 165 kts | 248° |
| 2026-05-01 10:57 | 52.34712 | 13.47715 | 726 ft | 163 kts | 249° |
| 2026-05-01 10:58 | 52.34264 | 13.45981 | 1302 ft | 168 kts | 247° |
| 2026-05-01 10:58 | 52.33595 | 13.44304 | 1632 ft | 190 kts | 226° |
| 2026-05-01 10:58 | 52.32583 | 13.42744 | 1884 ft | 210 kts | 227° |
| 2026-05-01 10:58 | 52.31529 | 13.40909 | 2221 ft | 230 kts | 230° |
| 2026-05-01 10:59 | 52.30485 | 13.38905 | 2988 ft | 231 kts | 231° |
| 2026-05-01 10:59 | 52.29451 | 13.36880 | 3794 ft | 235 kts | 230° |
| 2026-05-01 10:59 | 52.28750 | 13.35521 | 4259 ft | 238 kts | 229° |
| 2026-05-01 10:59 | 52.27669 | 13.33446 | 5051 ft | 242 kts | 229° |
| 2026-05-01 11:00 | 52.26562 | 13.31345 | 5788 ft | 246 kts | 228° |
| 2026-05-01 11:00 | 52.25430 | 13.29214 | 6529 ft | 251 kts | 228° |
| 2026-05-01 11:00 | 52.24357 | 13.26933 | 7219 ft | 257 kts | 239° |
| 2026-05-01 11:00 | 52.23583 | 13.24188 | 7592 ft | 279 kts | 248° |
| 2026-05-01 11:01 | 52.22832 | 13.21171 | 8076 ft | 293 kts | 248° |
| 2026-05-01 11:01 | 52.22064 | 13.18065 | 8789 ft | 298 kts | 248° |
| 2026-05-01 11:01 | 52.21281 | 13.14909 | 9545 ft | 302 kts | 248° |
| 2026-05-01 11:01 | 52.20481 | 13.11718 | 10290 ft | 306 kts | 247° |
| 2026-05-01 11:02 | 52.19666 | 13.08477 | 10962 ft | 311 kts | 247° |
| 2026-05-01 11:02 | 52.18830 | 13.05200 | 11598 ft | 317 kts | 245° |
| 2026-05-01 11:02 | 52.17610 | 13.02097 | 11799 ft | 336 kts | 223° |
| 2026-05-01 11:02 | 52.15646 | 12.99914 | 11949 ft | 352 kts | 199° |
| 2026-05-01 11:03 | 52.13313 | 12.98390 | 12141 ft | 371 kts | 203° |
| 2026-05-01 11:03 | 52.11067 | 12.96211 | 12684 ft | 381 kts | 212° |
| 2026-05-01 11:03 | 52.08947 | 12.93577 | 13344 ft | 386 kts | 217° |
| 2026-05-01 11:03 | 52.06873 | 12.90755 | 14003 ft | 391 kts | 218° |
| 2026-05-01 11:04 | 52.04749 | 12.87859 | 14614 ft | 395 kts | 217° |
| 2026-05-01 11:04 | 52.02600 | 12.85046 | 15200 ft | 399 kts | 216° |
| 2026-05-01 11:04 | 52.00388 | 12.82294 | 15795 ft | 402 kts | 214° |
| 2026-05-01 11:04 | 51.98134 | 12.79599 | 16432 ft | 403 kts | 214° |
| 2026-05-01 11:05 | 51.95852 | 12.76932 | 17025 ft | 406 kts | 213° |
| 2026-05-01 11:05 | 51.93544 | 12.74261 | 17603 ft | 409 kts | 214° |
| 2026-05-01 11:05 | 51.91217 | 12.71569 | 18164 ft | 413 kts | 214° |
| 2026-05-01 11:05 | 51.88876 | 12.68850 | 18716 ft | 416 kts | 214° |
| 2026-05-01 11:06 | 51.86551 | 12.66131 | 19176 ft | 419 kts | 214° |
| 2026-05-01 11:06 | 51.84154 | 12.63315 | 19677 ft | 422 kts | 214° |
| 2026-05-01 11:06 | 51.81769 | 12.60516 | 20160 ft | 424 kts | 214° |
| 2026-05-01 11:07 | 51.76961 | 12.54894 | 21120 ft | 430 kts | 214° |
| 2026-05-01 11:07 | 51.74533 | 12.52057 | 21599 ft | 432 kts | 214° |
| 2026-05-01 11:07 | 51.72089 | 12.49204 | 22073 ft | 435 kts | 214° |
| 2026-05-01 11:07 | 51.69633 | 12.46344 | 22549 ft | 437 kts | 214° |
| 2026-05-01 11:08 | 51.67155 | 12.43466 | 23023 ft | 440 kts | 214° |
| 2026-05-01 11:08 | 51.64665 | 12.40580 | 23488 ft | 442 kts | 214° |
| 2026-05-01 11:08 | 51.59637 | 12.34768 | 24347 ft | 447 kts | 214° |
| 2026-05-01 11:09 | 51.57103 | 12.31844 | 24732 ft | 450 kts | 214° |
| 2026-05-01 11:09 | 51.54558 | 12.28909 | 25112 ft | 452 kts | 214° |
| 2026-05-01 11:09 | 51.51997 | 12.25960 | 25489 ft | 454 kts | 214° |
| 2026-05-01 11:10 | 51.46841 | 12.20036 | 26237 ft | 458 kts | 214° |
| 2026-05-01 11:10 | 51.44246 | 12.17060 | 26615 ft | 460 kts | 214° |
| 2026-05-01 11:10 | 51.41639 | 12.14072 | 26977 ft | 462 kts | 215° |
| 2026-05-01 11:10 | 51.39035 | 12.11089 | 27338 ft | 464 kts | 215° |
| 2026-05-01 11:11 | 51.36404 | 12.08079 | 27677 ft | 466 kts | 215° |
| 2026-05-01 11:11 | 51.33759 | 12.05059 | 28011 ft | 468 kts | 215° |
| 2026-05-01 11:11 | 51.31104 | 12.02036 | 28342 ft | 470 kts | 215° |
| 2026-05-01 11:11 | 51.28437 | 11.99004 | 28691 ft | 471 kts | 215° |
| 2026-05-01 11:12 | 51.25763 | 11.95971 | 29090 ft | 472 kts | 215° |
| 2026-05-01 11:12 | 51.23083 | 11.92939 | 29439 ft | 473 kts | 215° |
| 2026-05-01 11:12 | 51.20391 | 11.89898 | 29809 ft | 474 kts | 215° |
| 2026-05-01 11:12 | 51.17704 | 11.86861 | 30257 ft | 473 kts | 215° |
| 2026-05-01 11:13 | 51.15024 | 11.83833 | 30656 ft | 472 kts | 215° |
| 2026-05-01 11:13 | 51.12344 | 11.80809 | 31012 ft | 472 kts | 215° |
| 2026-05-01 11:13 | 51.09668 | 11.77798 | 31330 ft | 472 kts | 215° |
| 2026-05-01 11:13 | 51.06995 | 11.74794 | 31420 ft | 467 kts | 215° |
| 2026-05-01 11:14 | 51.01749 | 11.68907 | 31431 ft | 459 kts | 215° |
| 2026-05-01 11:14 | 50.96538 | 11.63083 | 31432 ft | 458 kts | 215° |
| 2026-05-01 11:15 | 50.91325 | 11.57273 | 31426 ft | 458 kts | 215° |
| 2026-05-01 11:15 | 50.86105 | 11.51475 | 31423 ft | 458 kts | 215° |
| 2026-05-01 11:16 | 50.80888 | 11.45689 | 31418 ft | 458 kts | 215° |
| 2026-05-01 11:16 | 50.75668 | 11.39913 | 31421 ft | 458 kts | 215° |
| 2026-05-01 11:17 | 50.70439 | 11.34151 | 31403 ft | 459 kts | 214° |
| 2026-05-01 11:17 | 50.65192 | 11.28389 | 31399 ft | 460 kts | 215° |
| 2026-05-01 11:18 | 50.59944 | 11.22629 | 31385 ft | 460 kts | 214° |
| 2026-05-01 11:18 | 50.54695 | 11.16887 | 31391 ft | 459 kts | 214° |
| 2026-05-01 11:19 | 50.49448 | 11.11163 | 31399 ft | 459 kts | 214° |
| 2026-05-01 11:19 | 50.44197 | 11.05451 | 31395 ft | 459 kts | 214° |
| 2026-05-01 11:20 | 50.38951 | 10.99757 | 31394 ft | 459 kts | 214° |
| 2026-05-01 11:20 | 50.33697 | 10.94081 | 31391 ft | 459 kts | 214° |
| 2026-05-01 11:21 | 50.28446 | 10.88412 | 31393 ft | 458 kts | 214° |
| 2026-05-01 11:21 | 50.23180 | 10.82741 | 31408 ft | 465 kts | 214° |
| 2026-05-01 11:22 | 50.17818 | 10.76989 | 31407 ft | 474 kts | 214° |
| 2026-05-01 11:22 | 50.12375 | 10.71175 | 31407 ft | 475 kts | 214° |
| 2026-05-01 11:23 | 50.06885 | 10.65322 | 31403 ft | 475 kts | 214° |
| 2026-05-01 11:23 | 50.01466 | 10.59550 | 31407 ft | 475 kts | 214° |
| 2026-05-01 11:24 | 49.96006 | 10.53756 | 31404 ft | 475 kts | 214° |
| 2026-05-01 11:25 | 49.88703 | 10.46035 | 31388 ft | 475 kts | 214° |
| 2026-05-01 11:25 | 49.79605 | 10.36459 | 31388 ft | 474 kts | 214° |
| 2026-05-01 11:26 | 49.71414 | 10.27870 | 31382 ft | 474 kts | 214° |
| 2026-05-01 11:27 | 49.65947 | 10.22162 | 31370 ft | 475 kts | 214° |
| 2026-05-01 11:27 | 49.60475 | 10.16454 | 31366 ft | 475 kts | 214° |
| 2026-05-01 11:28 | 49.55000 | 10.10759 | 31368 ft | 475 kts | 214° |
| 2026-05-01 11:28 | 49.49512 | 10.05087 | 31361 ft | 475 kts | 214° |
| 2026-05-01 11:29 | 49.41268 | 9.96575 | 31358 ft | 476 kts | 214° |
| 2026-05-01 11:30 | 49.33007 | 9.88075 | 31360 ft | 477 kts | 214° |
| 2026-05-01 11:30 | 49.27491 | 9.82433 | 31354 ft | 477 kts | 214° |
| 2026-05-01 11:31 | 49.21973 | 9.76788 | 31343 ft | 477 kts | 214° |
| 2026-05-01 11:31 | 49.16465 | 9.71155 | 31370 ft | 476 kts | 214° |
| 2026-05-01 11:32 | 49.10949 | 9.65549 | 31371 ft | 476 kts | 214° |
| 2026-05-01 11:32 | 49.05444 | 9.59992 | 31371 ft | 468 kts | 214° |
| 2026-05-01 11:33 | 49.00072 | 9.54575 | 31366 ft | 461 kts | 214° |
| 2026-05-01 11:33 | 48.94725 | 9.49184 | 31130 ft | 461 kts | 214° |
| 2026-05-01 11:33 | 48.92055 | 9.46492 | 30877 ft | 461 kts | 214° |
| 2026-05-01 11:34 | 48.89381 | 9.43802 | 30627 ft | 461 kts | 213° |
| 2026-05-01 11:34 | 48.86705 | 9.41110 | 30371 ft | 461 kts | 214° |
| 2026-05-01 11:34 | 48.84025 | 9.38416 | 30078 ft | 462 kts | 213° |
| 2026-05-01 11:34 | 48.81345 | 9.35726 | 29734 ft | 460 kts | 213° |
| 2026-05-01 11:35 | 48.78684 | 9.33064 | 29084 ft | 457 kts | 213° |
| 2026-05-01 11:35 | 48.76036 | 9.30423 | 28450 ft | 454 kts | 213° |
| 2026-05-01 11:35 | 48.73408 | 9.27806 | 27804 ft | 451 kts | 213° |
| 2026-05-01 11:35 | 48.70791 | 9.25207 | 27168 ft | 448 kts | 213° |
| 2026-05-01 11:36 | 48.68189 | 9.22624 | 26534 ft | 446 kts | 213° |
| 2026-05-01 11:36 | 48.65602 | 9.20055 | 25909 ft | 444 kts | 213° |
| 2026-05-01 11:36 | 48.63030 | 9.17502 | 25297 ft | 441 kts | 213° |
| 2026-05-01 11:36 | 48.60469 | 9.14964 | 24686 ft | 439 kts | 213° |
| 2026-05-01 11:37 | 48.57918 | 9.12439 | 24066 ft | 437 kts | 213° |
| 2026-05-01 11:37 | 48.55384 | 9.09931 | 23419 ft | 434 kts | 213° |
| 2026-05-01 11:37 | 48.52868 | 9.07448 | 22842 ft | 429 kts | 212° |
| 2026-05-01 11:37 | 48.50389 | 9.05000 | 22280 ft | 423 kts | 212° |
| 2026-05-01 11:38 | 48.47943 | 9.02584 | 21757 ft | 418 kts | 212° |
| 2026-05-01 11:38 | 48.46337 | 9.01001 | 21415 ft | 414 kts | 212° |
| 2026-05-01 11:38 | 48.43944 | 8.98647 | 20919 ft | 408 kts | 212° |
| 2026-05-01 11:38 | 48.41581 | 8.96329 | 20434 ft | 403 kts | 211° |
| 2026-05-01 11:39 | 48.39253 | 8.94047 | 19966 ft | 397 kts | 211° |
| 2026-05-01 11:39 | 48.36955 | 8.91797 | 19526 ft | 391 kts | 212° |
| 2026-05-01 11:39 | 48.34686 | 8.89577 | 19062 ft | 387 kts | 211° |
| 2026-05-01 11:39 | 48.32442 | 8.87388 | 18634 ft | 382 kts | 212° |
| 2026-05-01 11:40 | 48.30225 | 8.85223 | 18164 ft | 378 kts | 212° |
| 2026-05-01 11:40 | 48.28036 | 8.83084 | 17727 ft | 373 kts | 211° |
| 2026-05-01 11:40 | 48.25872 | 8.80972 | 17294 ft | 370 kts | 211° |
| 2026-05-01 11:40 | 48.23720 | 8.78875 | 16845 ft | 368 kts | 211° |
| 2026-05-01 11:41 | 48.21581 | 8.76795 | 16407 ft | 365 kts | 211° |
| 2026-05-01 11:41 | 48.19453 | 8.74731 | 15959 ft | 363 kts | 211° |
| 2026-05-01 11:41 | 48.17339 | 8.72683 | 15495 ft | 361 kts | 211° |
| 2026-05-01 11:41 | 48.15238 | 8.70648 | 15032 ft | 359 kts | 211° |
| 2026-05-01 11:42 | 48.13149 | 8.68623 | 14564 ft | 357 kts | 211° |
| 2026-05-01 11:42 | 48.11062 | 8.66625 | 14089 ft | 356 kts | 210° |
| 2026-05-01 11:42 | 48.08959 | 8.64677 | 13566 ft | 354 kts | 209° |
| 2026-05-01 11:42 | 48.06861 | 8.62768 | 13077 ft | 352 kts | 209° |
| 2026-05-01 11:43 | 48.04772 | 8.60880 | 12589 ft | 350 kts | 209° |
| 2026-05-01 11:43 | 48.02693 | 8.58999 | 12095 ft | 348 kts | 209° |
| 2026-05-01 11:43 | 48.00627 | 8.57126 | 11587 ft | 347 kts | 209° |
| 2026-05-01 11:44 | 47.96591 | 8.53454 | 10968 ft | 318 kts | 210° |
| 2026-05-01 11:44 | 47.94742 | 8.51896 | 10599 ft | 296 kts | 202° |
| 2026-05-01 11:44 | 47.92835 | 8.50921 | 10288 ft | 288 kts | 191° |
| 2026-05-01 11:44 | 47.90881 | 8.50336 | 10155 ft | 286 kts | 189° |
| 2026-05-01 11:45 | 47.88930 | 8.49750 | 9917 ft | 286 kts | 189° |
| 2026-05-01 11:45 | 47.86991 | 8.49159 | 9785 ft | 284 kts | 189° |
| 2026-05-01 11:45 | 47.85055 | 8.48568 | 9652 ft | 284 kts | 189° |
| 2026-05-01 11:45 | 47.83118 | 8.47981 | 9341 ft | 286 kts | 189° |
| 2026-05-01 11:46 | 47.81167 | 8.47391 | 8959 ft | 285 kts | 190° |
| 2026-05-01 11:46 | 47.79210 | 8.46798 | 8510 ft | 286 kts | 190° |
| 2026-05-01 11:46 | 47.77277 | 8.46212 | 8187 ft | 282 kts | 189° |
| 2026-05-01 11:46 | 47.75379 | 8.45639 | 7584 ft | 276 kts | 190° |
| 2026-05-01 11:47 | 47.73502 | 8.45073 | 6848 ft | 274 kts | 190° |
| 2026-05-01 11:47 | 47.71653 | 8.44517 | 6249 ft | 270 kts | 190° |
| 2026-05-01 11:47 | 47.69855 | 8.43814 | 5738 ft | 267 kts | 203° |
| 2026-05-01 11:47 | 47.68323 | 8.42495 | 5600 ft | 242 kts | 218° |
| 2026-05-01 11:48 | 47.67137 | 8.40798 | 5548 ft | 236 kts | 227° |
| 2026-05-01 11:48 | 47.66019 | 8.39013 | 5454 ft | 236 kts | 227° |
| 2026-05-01 11:48 | 47.64905 | 8.37243 | 5353 ft | 234 kts | 227° |
| 2026-05-01 11:48 | 47.63713 | 8.35623 | 5249 ft | 232 kts | 207° |
| 2026-05-01 11:49 | 47.62180 | 8.35199 | 5023 ft | 225 kts | 169° |
| 2026-05-01 11:49 | 47.60848 | 8.36231 | 4800 ft | 213 kts | 139° |
| 2026-05-01 11:49 | 47.59795 | 8.37686 | 4509 ft | 201 kts | 136° |
| 2026-05-01 11:49 | 47.58802 | 8.39076 | 4254 ft | 192 kts | 136° |
| 2026-05-01 11:50 | 47.57862 | 8.40374 | 4010 ft | 179 kts | 136° |
| 2026-05-01 11:50 | 47.56984 | 8.41582 | 3788 ft | 168 kts | 136° |
| 2026-05-01 11:50 | 47.56145 | 8.42735 | 3582 ft | 160 kts | 136° |
| 2026-05-01 11:50 | 47.55357 | 8.43816 | 3366 ft | 151 kts | 136° |
| 2026-05-01 11:51 | 47.54602 | 8.44852 | 3164 ft | 146 kts | 134° |
| 2026-05-01 11:51 | 47.53862 | 8.45865 | 2964 ft | 144 kts | 135° |
| 2026-05-01 11:51 | 47.53128 | 8.46872 | 2784 ft | 144 kts | 135° |
| 2026-05-01 11:51 | 47.52397 | 8.47872 | 2585 ft | 142 kts | 133° |
| 2026-05-01 11:52 | 47.51670 | 8.48869 | 2386 ft | 143 kts | 135° |
| 2026-05-01 11:52 | 47.50937 | 8.49863 | 2224 ft | 143 kts | 134° |
| 2026-05-01 11:52 | 47.50203 | 8.50871 | 2047 ft | 145 kts | 134° |
| 2026-05-01 11:52 | 47.49464 | 8.51878 | 1820 ft | 145 kts | 135° |
| 2026-05-01 11:53 | 47.48720 | 8.52884 | 1611 ft | 145 kts | 134° |
| 2026-05-01 11:53 | 47.47992 | 8.53905 | 1417 ft | 142 kts | 135° |
| 2026-05-01 11:53 | 47.47343 | 8.54793 | 1409 ft | 107 kts | 137° |
| 2026-05-01 11:53 | 47.46924 | 8.55364 | 1410 ft | 57 kts | 137° |
| 2026-05-01 11:54 | 47.46752 | 8.55577 | 1411 ft | 9 kts | 146° |
| 2026-05-01 11:54 | 47.46681 | 8.55638 | 1407 ft | 15 kts | 154° |
| 2026-05-01 11:54 | 47.46589 | 8.55682 | 1409 ft | 13 kts | 166° |
| 2026-05-01 11:54 | 47.46496 | 8.55712 | 1407 ft | 14 kts | 168° |
| 2026-05-01 11:55 | 47.46398 | 8.55750 | 1401 ft | 15 kts | 155° |
| 2026-05-01 11:55 | 47.46320 | 8.55844 | 1402 ft | 14 kts | 137° |
| 2026-05-01 11:55 | 47.46251 | 8.55940 | 1403 ft | 13 kts | 137° |
| 2026-05-01 11:55 | 47.46174 | 8.56000 | 1402 ft | 12 kts | 179° |
| 2026-05-01 11:56 | 47.46090 | 8.55990 | 1397 ft | 12 kts | 186° |
| 2026-05-01 11:56 | 47.46010 | 8.55978 | 1397 ft | 12 kts | 185° |
| 2026-05-01 11:56 | 47.45927 | 8.55948 | 1400 ft | 13 kts | 199° |
| 2026-05-01 11:56 | 47.45843 | 8.55903 | 1400 ft | 13 kts | 199° |
| 2026-05-01 11:57 | 47.45762 | 8.55875 | 1406 ft | 13 kts | 186° |
| 2026-05-01 11:57 | 47.45655 | 8.55859 | 1398 ft | 18 kts | 185° |
| 2026-05-01 11:57 | 47.45546 | 8.55841 | 1398 ft | 13 kts | 194° |
| 2026-05-01 11:57 | 47.45473 | 8.55812 | 1397 ft | 9 kts | 186° |
| 2026-05-01 11:58 | 47.45431 | 8.55806 | 1399 ft | 3 kts | 186° |
| 2026-05-01 11:58 | 47.45426 | 8.55805 | 1400 ft | 0 kts | 186° |